Aviation Digital Data Service (ADDS)

Output produced by METARs form (0950 UTC 23 April 2017)
found at http://www.aviationweather.gov/adds/metars/
 
LIMA 230850Z 18005KT 150V230 CAVOK 15/09 Q1017
LIMG 230850Z 12004KT 9999 BKN030 15/11 Q1017
LIEA 230920Z 20008KT 160V230 9999 FEW030 17/09 Q1020
TAF LIEA 230500Z 2306/2406 VRB05KT CAVOK 
     BECMG 2306/2309 24010KT 
     BECMG 2316/2318 VRB05KT
       
TAF LIBA 230200Z 2303/2312 VRB05KT CAVOK
       
LIME 230920Z 24006KT 180V290 9999 BKN025 16/09 Q1017 NOSIG
TAF LIME 230500Z 2306/2406 VRB05KT CAVOK 
     TEMPO 2312/2318 24010KT 
     BECMG 2400/2403 BKN012 BKN040
       
LIPE 230920Z VRB02KT 9999 FEW040 17/09 Q1018
TAF LIPE 230500Z 2306/2406 VRB05KT CAVOK
       
LIPB 230850Z 00000KT 9999 FEW070 16/03 Q1016
TAF LIPB 230500Z 2306/2406 VRB05KT 9999 FEW060
       
LIRN 230920Z 27008KT 240V330 9999 SCT030 18/04 Q1020 NOSIG
TAF LIRN 230500Z 2306/2406 VRB05KT CAVOK 
     BECMG 2309/2311 25010KT 
     BECMG 2317/2319 VRB05KT
       
LIBR 230915Z 24006KT CAVOK 15/05 Q1019 NOSIG
TAF LIBR 230500Z 2306/2406 24008KT CAVOK 
     BECMG 2310/2311 09010KT 9999 SCT020 
     BECMG 2318/2319 24005KT CAVOK
       
LICC 230920Z 21005KT 140V270 CAVOK 17/04 Q1021
TAF LICC 230500Z 2306/2406 26007KT 9999 SCT030 
     BECMG 2310/2312 10012KT 
     BECMG 2316/2318 VRB05KT
       
LIPC 230855Z 32007KT 9999 FEW030 17/10 Q1017 RMK SCT SCT170 VIS MIN 9999 WIND THR11 34007KT WIND THR29 32008KT BLU
TAF LIPC 230800Z 2309/2318 32008KT 9999 SCT060 
     BECMG 2309/2311 12010KT
       
LIRA 230920Z 19006KT 150V220 9999 FEW030 17/06 Q1020
TAF LIRA 230500Z 2306/2406 VRB05KT CAVOK 
     BECMG 2308/2310 24010KT 
     BECMG 2316/2318 VRB05KT
       
LIED 230855Z 25002KT CAVOK 18/06 Q1019 RMK SCT SCT200 VIS MIN 9999 WIND THR35 31003KT WIND THR17 /////KT BLU
TAF LIED 230500Z 2306/2315 VRB03KT CAVOK 
     BECMG 2313/2315 15010KT
       
LIEE 230920Z 21004KT 160V260 CAVOK 17/01 Q1020
TAF LIEE 230500Z 2306/2406 33008KT 9999 SCT030 
     BECMG 2310/2312 18012KT 
     BECMG 2317/2319 VRB05KT
       
LIPY 230850Z 24008KT 210V290 CAVOK 18/08 Q1017
TAF LIPY 230500Z 2306/2406 VRB05KT CAVOK 
     BECMG 2312/2314 14010KT 
     BECMG 2318/2320 VRB05KT
       
LIRF 230920Z VRB07KT 9999 FEW035 17/08 Q1020 NOSIG
TAF LIRF 230500Z 2306/2412 VRB05KT CAVOK 
     BECMG 2309/2312 25013KT 
     BECMG 2318/2321 06008KT 
     BECMG 2406/2409 16012KT
       
LIMJ 230920Z 17004KT 9999 FEW024 BKN028 16/11 Q1018
TAF LIMJ 230500Z 2306/2406 16010KT 9999 BKN030 
     BECMG 2320/2322 02005KT
       
LIPL 230855Z /////KT 9999 FEW025 BKN045 15/07 Q1017 RMK BKN VIS MIN 9999 WIND THR31 16003KT BLU
TAF LIPL 230800Z 2309/2318 VRB04KT 9999 SCT040
       
LIBF 230850Z 27009G19KT CAVOK 19/06 Q1017
LIBV 230855Z 25007KT 190V300 CAVOK 16/01 Q1017 RMK SKC VIS MIN 9999 WIND THR32 29006KT WIND THR14 28007KT BLU
TAF LIBV 230800Z 2309/2318 23012KT CAVOK 
     TEMPO 2410/2414 31013KT 9999 SCT030
       
LIRM 230855Z 26008KT 9999 FEW025 17/11 Q1020 RMK FEW VIS MIN 9999 WIND THR06 24009KT BLU
TAF LIRM 230800Z 2309/2318 02004KT 6000 NSC 
     BECMG 2309/2311 CAVOK 
     BECMG 2310/2312 26015KT
       
LIRS 230855Z 13004KT CAVOK 17/04 Q1019 RMK SKC VIS MIN 9999 WIND THR03 15006KT WIND THR21 16004KT BLU
TAF LIRS 230800Z 2309/2318 12007KT CAVOK
       
LIBG 230850Z 25006KT 210V280 CAVOK 16/03 Q1018
TAF LIBG 230800Z 2309/2318 20010KT 9999 FEW040 
     BECMG 2316/2318 VRB05KT
       
LIPS 230855Z 08006KT CAVOK 15/01 Q1017 RMK SKC VIS MIN 9999 WIND THR26 06006KT WIND THR08 06007KT BLU
TAF LIPS 230800Z 2309/2318 06008KT 9999 SCT060 
     BECMG 2309/2311 14012KT
       
LICA 230850Z 27009KT 9999 FEW020 17/09 Q1022
TAF LICA 230500Z 2306/2406 VRB05KT 9999 SCT030 
     BECMG 2308/2310 27014KT 
     BECMG 2318/2320 VRB05KT
       
LICD 230850Z 22008KT CAVOK 16/07 Q1024
TAF LICD 230500Z 2306/2406 21010KT CAVOK 
     BECMG 2315/2318 15010KT
       
LIBN 230855Z 23008KT CAVOK 17/06 Q1019 RMK SKC VIS MIN 9999 WIND THR32 25009KT WIND THR32 25006KT BLU
LIMZ 230850Z VRB02KT 9000 FEW030 14/10 Q1017
TAF LIMZ 230500Z 2306/2406 VRB05KT CAVOK 
     BECMG 2400/2402 BKN012 BKN040 
     TEMPO 2402/2406 DZ
       
LIML 230920Z 24008KT 200V270 CAVOK 17/09 Q1016 NOSIG
TAF LIML 230500Z 2306/2406 VRB05KT CAVOK 
     TEMPO 2311/2320 24010KT 
     BECMG 2400/2402 BKN012 BKN040 
     TEMPO 2402/2406 DZ
       
LIMC 230920Z 24006KT 200V290 CAVOK 16/09 Q1017 NOSIG
TAF LIMC 230500Z 2306/2412 VRB05KT CAVOK 
     TEMPO 2311/2320 21010KT 
     BECMG 2400/2402 BKN012 BKN040 
     TEMPO 2402/2412 DZ
       
LIPO 230850Z 16004KT 8000 BKN050 15/05 Q1017
TAF LIPO 230500Z 2306/2406 VRB05KT CAVOK
       
LIEO 230920Z 22007KT 160V260 CAVOK 20/M01 Q1019
TAF LIEO 230500Z 2306/2406 24008KT 9999 FEW030 
     BECMG 2310/2312 08010KT 
     BECMG 2316/2318 VRB05KT
       
LIPU 230600Z 36004KT CAVOK 08/05 Q1016
LICJ 230920Z 27006KT CAVOK 16/05 Q1022
TAF LICJ 230500Z 2306/2406 VRB04KT 9999 SCT030 
     BECMG 2310/2312 35010KT 
     BECMG 2318/2321 17007KT
       
LIBD 230920Z 04006KT 010V090 CAVOK 18/05 Q1017
TAF LIBD 230500Z 2306/2406 VRB05KT 9999 SCT030 
     BECMG 2308/2311 02012KT 
     BECMG 2316/2318 VRB05KT
       
LICG 230855Z 21014KT 9999 FEW020 16/10 Q1021 RMK FEW VIS MIN 9999 WIND THR08 /////KT WIND THR21 21015KT BLU
TAF LICG 230800Z 2309/2318 19016KT CAVOK
       
LIMP 230850Z VRB03KT CAVOK 16/08 Q1017
TAF LIMP 230500Z 2306/2406 VRB05KT CAVOK 
     TEMPO 2316/2322 24010KT
       
LIRQ 230920Z 22006KT 190V270 9999 BKN040 15/08 Q1019
TAF LIRQ 230500Z 2306/2406 VRB05KT 9999 FEW040 
     BECMG 2308/2310 24010KT 
     BECMG 2316/2318 VRB05KT
       
LIRZ 230850Z 22006KT 180V260 CAVOK 14/06 Q1019
TAF LIRZ 230500Z 2306/2406 VRB05KT CAVOK 
     BECMG 2310/2312 25010KT 
     BECMG 2317/2319 VRB05KT
       
LIBP 230850Z 06009KT CAVOK 17/09 Q1018
TAF LIBP 230500Z 2306/2406 VRB05KT CAVOK
       
LIRP 230915Z 23009KT 9999 SCT030 SCT050 18/09 Q1019 NOSIG
TAF LIRP 230500Z 2306/2406 27007KT 9999 SCT025 
     BECMG 2319/2321 35005KT 
     BECMG 2323/2401 13005KT 
     PROB30 
     TEMPO 2401/2406 5000 BR
       
LIRI 230850Z 19008KT 9999 FEW025 17/10 Q1020
LIRE 230855Z 21004KT 9999 FEW020 17/06 Q1019 RMK FEW VIS MIN 9999 WIND THR13 21004KT WIND THR31 /////KT BLU
TAF LIRE 230800Z 2309/2318 22012KT CAVOK
       
LICR 230850Z 35015KT CAVOK 17/07 Q1021
TAF LICR 230500Z 2306/2406 01012KT 9999 SCT030 
     BECMG 2310/2312 23010KT 
     BECMG 2318/2320 35008KT
       
LIPR 230915Z 06004KT 9999 FEW030 15/11 Q1017
TAF LIPR 230800Z 2309/2318 34005KT 9999 SCT060 
     BECMG 2309/2311 12010KT
       
LIPI 230355Z 03004KT CAVOK 06/04 Q1017 RMK SKC VIS MIN 9999 WIND THR06 03004KT WIND THR24 03003KT BLU
TAF LIPI 230200Z 2303/2312 04005KT 9999 SCT100 
     PROB30 
     TEMPO 2303/2306 5000 BR
       
LIPQ 230920Z 12012KT CAVOK 17/02 Q1018
TAF LIPQ 230500Z 2306/2406 VRB05KT CAVOK 
     BECMG 2309/2311 24010KT 
     BECMG 2316/2318 VRB05KT
       
LICZ 230855Z 15005KT CAVOK 19/04 Q1021 RMK SKC VIS MIN 9999 WIND THR28 /////KT WIND THR10 15006KT A3017 BLU
TAF LICZ 230800Z 2309/2318 27007KT CAVOK 
     BECMG 2310/2312 10010KT
       
LIMF 230920Z 20006KT 170V230 CAVOK 16/09 Q1017
TAF LIMF 230500Z 2306/2406 VRB05KT CAVOK 
     BECMG 2400/2402 BKN012 BKN040 
     TEMPO 2402/2406 DZ
       
LICT 230855Z 22008KT 9999 FEW030 17/10 Q1022 RMK FEW VIS MIN 9999 WIND THR13 21007KT BLU
TAF LICT 230800Z 2309/2318 18010KT CAVOK
       
LIPH 230850Z 08005KT 020V130 CAVOK 15/03 Q1018
TAF LIPH 230500Z 2306/2406 VRB05KT CAVOK 
     BECMG 2310/2312 14010KT 
     BECMG 2318/2320 VRB05KT
       
LIRU 230850Z 00000KT CAVOK 16/07 Q1020
TAF LIRU 230800Z 2309/2318 VRB05KT CAVOK 
     BECMG 2310/2312 24010KT
       
LIPZ 230920Z 08007KT 050V110 CAVOK 15/04 Q1018 NOSIG
TAF LIPZ 230500Z 2306/2412 VRB05KT CAVOK 
     BECMG 2308/2311 15010KT 
     BECMG 2318/2321 06010KT
       
LIPX 230920Z 12004KT 060V180 9999 SCT040 16/04 Q1018
TAF LIPX 230800Z 2309/2318 VRB05KT CAVOK
       
LIRV 230855Z 05004KT CAVOK 15/04 Q1019 RMK SKC MON E SE LIB NC VIS MIN 9999 BLU
TAF LIRV 230800Z 2309/2318 16007KT CAVOK